RYR76RK EIDW-LEMI
Flight info
| Callsign | RYR76RK |
|---|---|
| Flight time | 2h 37m |
| Altitude | 28000 |
| Route | BEPAN4E BEPAN DCT BANBA/N0437F350 DCT PAVLO/N0438F370 DCT DOLUR DCT IDRIK DCT NENEM P152 PPN/N0437F380 M176 DISVU/N0404F300 M176 ALT |
| Aircraft | B738/M-SDE3FGIJ1LRWY/SB1 |
Departure
| Time | 2026-04-23 16:31 |
|---|---|
| Airport | Dublin Airport (EIDW) |
Arrival
| Time | 2026-04-23 19:08 |
|---|---|
| Airport | Region of Murcia International Airport (LEMI) |
| Time | Latitude | Longitude | Altitude | Speed | Heading |
|---|---|---|---|---|---|
| 2026-04-23 15:21 | 53.43004 | -6.24878 | 210 ft | 0 kts | 5° |
| 2026-04-23 16:21 | 53.42985 | -6.24881 | 213 ft | 4 kts | 5° |
| 2026-04-23 16:21 | 53.42962 | -6.24885 | 221 ft | 4 kts | 0° |
| 2026-04-23 16:21 | 53.42946 | -6.24873 | 211 ft | 4 kts | 283° |
| 2026-04-23 16:22 | 53.42943 | -6.24831 | 210 ft | 4 kts | 275° |
| 2026-04-23 16:22 | 53.42940 | -6.24786 | 221 ft | 4 kts | 275° |
| 2026-04-23 16:22 | 53.42938 | -6.24748 | 215 ft | 1 kts | 275° |
| 2026-04-23 16:22 | 53.42938 | -6.24747 | 215 ft | 0 kts | 275° |
| 2026-04-23 16:25 | 53.42939 | -6.24751 | 210 ft | 2 kts | 275° |
| 2026-04-23 16:25 | 53.42941 | -6.24800 | 210 ft | 7 kts | 269° |
| 2026-04-23 16:25 | 53.42901 | -6.24899 | 210 ft | 13 kts | 227° |
| 2026-04-23 16:26 | 53.42835 | -6.25015 | 210 ft | 14 kts | 221° |
| 2026-04-23 16:26 | 53.42763 | -6.25111 | 210 ft | 13 kts | 227° |
| 2026-04-23 16:26 | 53.42698 | -6.25225 | 213 ft | 15 kts | 225° |
| 2026-04-23 16:26 | 53.42646 | -6.25314 | 210 ft | 18 kts | 225° |
| 2026-04-23 16:27 | 53.42546 | -6.25482 | 209 ft | 22 kts | 226° |
| 2026-04-23 16:27 | 53.42434 | -6.25677 | 210 ft | 23 kts | 226° |
| 2026-04-23 16:27 | 53.42322 | -6.25867 | 216 ft | 22 kts | 226° |
| 2026-04-23 16:27 | 53.42260 | -6.26174 | 210 ft | 22 kts | 275° |
| 2026-04-23 16:28 | 53.42275 | -6.26450 | 217 ft | 28 kts | 275° |
| 2026-04-23 16:28 | 53.42288 | -6.26687 | 210 ft | 32 kts | 275° |
| 2026-04-23 16:28 | 53.42308 | -6.27063 | 220 ft | 32 kts | 275° |
| 2026-04-23 16:28 | 53.42329 | -6.27430 | 210 ft | 31 kts | 275° |
| 2026-04-23 16:29 | 53.42347 | -6.27778 | 214 ft | 29 kts | 275° |
| 2026-04-23 16:29 | 53.42364 | -6.28087 | 210 ft | 24 kts | 275° |
| 2026-04-23 16:29 | 53.42366 | -6.28288 | 211 ft | 12 kts | 240° |
| 2026-04-23 16:29 | 53.42290 | -6.28303 | 217 ft | 12 kts | 149° |
| 2026-04-23 16:30 | 53.42219 | -6.28249 | 217 ft | 10 kts | 170° |
| 2026-04-23 16:30 | 53.42194 | -6.28135 | 211 ft | 18 kts | 96° |
| 2026-04-23 16:30 | 53.42158 | -6.27462 | 213 ft | 99 kts | 95° |
| 2026-04-23 16:30 | 53.42074 | -6.25914 | 320 ft | 157 kts | 94° |
| 2026-04-23 16:31 | 53.41975 | -6.24071 | 1224 ft | 162 kts | 96° |
| 2026-04-23 16:31 | 53.41874 | -6.22280 | 2356 ft | 155 kts | 100° |
| 2026-04-23 16:31 | 53.41756 | -6.20294 | 2844 ft | 190 kts | 100° |
| 2026-04-23 16:31 | 53.41619 | -6.17910 | 3103 ft | 221 kts | 99° |
| 2026-04-23 16:32 | 53.41466 | -6.15166 | 3464 ft | 248 kts | 98° |
| 2026-04-23 16:32 | 53.41307 | -6.12239 | 4397 ft | 254 kts | 98° |
| 2026-04-23 16:32 | 53.41145 | -6.09266 | 5466 ft | 258 kts | 99° |
| 2026-04-23 16:32 | 53.40980 | -6.06271 | 6534 ft | 259 kts | 99° |
| 2026-04-23 16:33 | 53.40654 | -6.03312 | 7481 ft | 259 kts | 117° |
| 2026-04-23 16:33 | 53.39557 | -6.00966 | 8369 ft | 259 kts | 145° |
| 2026-04-23 16:33 | 53.37935 | -5.99667 | 9301 ft | 261 kts | 167° |
| 2026-04-23 16:33 | 53.36120 | -5.99502 | 10258 ft | 265 kts | 186° |
| 2026-04-23 16:34 | 53.34269 | -5.99992 | 10944 ft | 279 kts | 190° |
| 2026-04-23 16:34 | 53.32263 | -6.00625 | 11152 ft | 308 kts | 190° |
| 2026-04-23 16:34 | 53.30122 | -6.01290 | 11643 ft | 323 kts | 190° |
| 2026-04-23 16:34 | 53.27885 | -6.01986 | 12419 ft | 330 kts | 191° |
| 2026-04-23 16:35 | 53.25619 | -6.02727 | 13277 ft | 334 kts | 191° |
| 2026-04-23 16:35 | 53.23321 | -6.03488 | 14109 ft | 339 kts | 191° |
| 2026-04-23 16:35 | 53.20986 | -6.04263 | 14847 ft | 345 kts | 191° |
| 2026-04-23 16:35 | 53.18618 | -6.05046 | 15607 ft | 349 kts | 191° |
| 2026-04-23 16:36 | 53.16223 | -6.05837 | 16358 ft | 353 kts | 190° |
| 2026-04-23 16:36 | 53.13797 | -6.06634 | 17103 ft | 358 kts | 190° |
| 2026-04-23 16:36 | 53.11339 | -6.07439 | 17845 ft | 362 kts | 190° |
| 2026-04-23 16:36 | 53.08849 | -6.08254 | 18556 ft | 368 kts | 189° |
| 2026-04-23 16:37 | 53.06298 | -6.09087 | 19033 ft | 377 kts | 189° |
| 2026-04-23 16:37 | 53.03724 | -6.09928 | 19355 ft | 378 kts | 189° |
| 2026-04-23 16:37 | 53.01132 | -6.10771 | 19632 ft | 381 kts | 189° |
| 2026-04-23 16:37 | 52.98529 | -6.11613 | 20386 ft | 380 kts | 189° |
| 2026-04-23 16:38 | 52.95932 | -6.12457 | 21075 ft | 382 kts | 190° |
| 2026-04-23 16:38 | 52.93306 | -6.13309 | 21688 ft | 387 kts | 190° |
| 2026-04-23 16:38 | 52.90655 | -6.14170 | 22289 ft | 390 kts | 190° |
| 2026-04-23 16:38 | 52.87985 | -6.15037 | 22969 ft | 392 kts | 190° |
| 2026-04-23 16:39 | 52.85286 | -6.15911 | 23509 ft | 397 kts | 190° |
| 2026-04-23 16:39 | 52.82563 | -6.16791 | 24084 ft | 400 kts | 190° |
| 2026-04-23 16:39 | 52.79824 | -6.17675 | 24592 ft | 403 kts | 190° |
| 2026-04-23 16:39 | 52.77061 | -6.18565 | 25047 ft | 407 kts | 190° |
| 2026-04-23 16:40 | 52.74306 | -6.19452 | 25482 ft | 410 kts | 190° |
| 2026-04-23 16:40 | 52.71489 | -6.20357 | 25915 ft | 414 kts | 190° |
| 2026-04-23 16:40 | 52.68655 | -6.21267 | 26391 ft | 416 kts | 191° |
| 2026-04-23 16:40 | 52.65800 | -6.22182 | 26845 ft | 419 kts | 191° |
| 2026-04-23 16:41 | 52.62917 | -6.23105 | 27212 ft | 424 kts | 191° |
| 2026-04-23 16:41 | 52.60014 | -6.24033 | 27685 ft | 426 kts | 191° |
| 2026-04-23 16:41 | 52.57096 | -6.24965 | 28023 ft | 431 kts | 191° |
| 2026-04-23 16:41 | 52.54120 | -6.25908 | 28241 ft | 438 kts | 190° |
| 2026-04-23 16:42 | 52.51078 | -6.26447 | 28610 ft | 442 kts | 181° |
| 2026-04-23 16:42 | 52.47999 | -6.26337 | 29077 ft | 443 kts | 179° |
| 2026-04-23 16:42 | 52.44909 | -6.26159 | 29449 ft | 446 kts | 179° |
| 2026-04-23 16:42 | 52.41789 | -6.25971 | 29752 ft | 451 kts | 178° |
| 2026-04-23 16:43 | 52.38651 | -6.25799 | 30153 ft | 452 kts | 179° |
| 2026-04-23 16:43 | 52.35509 | -6.25637 | 30667 ft | 450 kts | 179° |
| 2026-04-23 16:43 | 52.32386 | -6.25486 | 31161 ft | 448 kts | 180° |
| 2026-04-23 16:43 | 52.29276 | -6.25349 | 31631 ft | 446 kts | 179° |
| 2026-04-23 16:44 | 52.26177 | -6.25218 | 32058 ft | 445 kts | 180° |
| 2026-04-23 16:44 | 52.23081 | -6.25088 | 32487 ft | 444 kts | 180° |
| 2026-04-23 16:44 | 52.19997 | -6.24959 | 32947 ft | 443 kts | 180° |
| 2026-04-23 16:44 | 52.16925 | -6.24829 | 33385 ft | 441 kts | 180° |
| 2026-04-23 16:45 | 52.13852 | -6.24697 | 33795 ft | 441 kts | 180° |
| 2026-04-23 16:45 | 52.10782 | -6.24497 | 34104 ft | 443 kts | 175° |
| 2026-04-23 16:45 | 52.07770 | -6.23563 | 34303 ft | 449 kts | 166° |
| 2026-04-23 16:45 | 52.04782 | -6.22046 | 34553 ft | 451 kts | 162° |
| 2026-04-23 16:46 | 52.01798 | -6.20486 | 34897 ft | 449 kts | 164° |
| 2026-04-23 16:46 | 51.98809 | -6.19055 | 35325 ft | 446 kts | 165° |
| 2026-04-23 16:46 | 51.95836 | -6.17676 | 35730 ft | 443 kts | 165° |
| 2026-04-23 16:46 | 51.92877 | -6.16309 | 36078 ft | 442 kts | 165° |
| 2026-04-23 16:47 | 51.89919 | -6.14933 | 36409 ft | 441 kts | 165° |
| 2026-04-23 16:47 | 51.86978 | -6.13553 | 36767 ft | 439 kts | 165° |
| 2026-04-23 16:47 | 51.84052 | -6.12171 | 37161 ft | 436 kts | 165° |
| 2026-04-23 16:47 | 51.81136 | -6.10789 | 37308 ft | 440 kts | 164° |
| 2026-04-23 16:48 | 51.75228 | -6.07977 | 37301 ft | 442 kts | 165° |
| 2026-04-23 16:48 | 51.69384 | -6.05206 | 37286 ft | 434 kts | 164° |
| 2026-04-23 16:49 | 51.63591 | -6.02473 | 37295 ft | 434 kts | 165° |
| 2026-04-23 16:49 | 51.57819 | -5.99757 | 37301 ft | 435 kts | 165° |
| 2026-04-23 16:50 | 51.52001 | -5.97024 | 37293 ft | 436 kts | 165° |
| 2026-04-23 16:50 | 51.46170 | -5.94292 | 37287 ft | 437 kts | 165° |
| 2026-04-23 16:51 | 51.40325 | -5.91561 | 37292 ft | 438 kts | 165° |
| 2026-04-23 16:51 | 51.34473 | -5.88833 | 37285 ft | 438 kts | 165° |
| 2026-04-23 16:52 | 51.28610 | -5.86108 | 37277 ft | 439 kts | 165° |
| 2026-04-23 16:52 | 51.22745 | -5.83389 | 37276 ft | 439 kts | 165° |
| 2026-04-23 16:53 | 51.16879 | -5.80677 | 37277 ft | 438 kts | 165° |
| 2026-04-23 16:53 | 51.11057 | -5.77992 | 37271 ft | 438 kts | 165° |
| 2026-04-23 16:54 | 51.05204 | -5.75299 | 37269 ft | 437 kts | 165° |
| 2026-04-23 16:54 | 50.99363 | -5.72618 | 37267 ft | 436 kts | 165° |
| 2026-04-23 16:55 | 50.93530 | -5.69951 | 37271 ft | 435 kts | 165° |
| 2026-04-23 16:55 | 50.87711 | -5.67298 | 37260 ft | 435 kts | 165° |
| 2026-04-23 16:56 | 50.81898 | -5.64653 | 37258 ft | 434 kts | 165° |
| 2026-04-23 16:56 | 50.76085 | -5.62014 | 37260 ft | 434 kts | 165° |
| 2026-04-23 16:57 | 50.70302 | -5.59398 | 37254 ft | 435 kts | 165° |
| 2026-04-23 16:57 | 50.64471 | -5.56763 | 37250 ft | 437 kts | 165° |
| 2026-04-23 16:58 | 50.58622 | -5.54127 | 37248 ft | 438 kts | 165° |
| 2026-04-23 16:58 | 50.52738 | -5.51484 | 37242 ft | 440 kts | 165° |
| 2026-04-23 16:59 | 50.46835 | -5.48838 | 37236 ft | 441 kts | 165° |
| 2026-04-23 16:59 | 50.40918 | -5.46193 | 37235 ft | 443 kts | 165° |
| 2026-04-23 17:00 | 50.34978 | -5.43545 | 37227 ft | 443 kts | 166° |
| 2026-04-23 17:00 | 50.29080 | -5.40922 | 37212 ft | 443 kts | 165° |
| 2026-04-23 17:01 | 50.23146 | -5.38290 | 37214 ft | 443 kts | 166° |
| 2026-04-23 17:01 | 50.17218 | -5.35668 | 37211 ft | 442 kts | 165° |
| 2026-04-23 17:02 | 50.11297 | -5.33055 | 37213 ft | 442 kts | 166° |
| 2026-04-23 17:02 | 50.05387 | -5.30454 | 37213 ft | 441 kts | 166° |
| 2026-04-23 17:03 | 49.99489 | -5.27865 | 37211 ft | 440 kts | 166° |
| 2026-04-23 17:03 | 49.93600 | -5.25286 | 37215 ft | 439 kts | 165° |
| 2026-04-23 17:04 | 49.87713 | -5.22715 | 37224 ft | 439 kts | 165° |
| 2026-04-23 17:04 | 49.81843 | -5.20156 | 37230 ft | 438 kts | 166° |
| 2026-04-23 17:05 | 49.76020 | -5.17624 | 37212 ft | 437 kts | 166° |
| 2026-04-23 17:05 | 49.70161 | -5.15087 | 37214 ft | 437 kts | 165° |
| 2026-04-23 17:06 | 49.64314 | -5.12558 | 37213 ft | 436 kts | 166° |
| 2026-04-23 17:06 | 49.58476 | -5.10043 | 37204 ft | 436 kts | 167° |
| 2026-04-23 17:07 | 49.52612 | -5.07693 | 37203 ft | 435 kts | 167° |
| 2026-04-23 17:07 | 49.46733 | -5.05424 | 37201 ft | 435 kts | 167° |
| 2026-04-23 17:08 | 49.40866 | -5.03157 | 37198 ft | 435 kts | 168° |
| 2026-04-23 17:08 | 49.34995 | -5.00885 | 37193 ft | 435 kts | 168° |
| 2026-04-23 17:09 | 49.29128 | -4.98603 | 37190 ft | 435 kts | 167° |
| 2026-04-23 17:09 | 49.23257 | -4.96328 | 37188 ft | 435 kts | 168° |
| 2026-04-23 17:10 | 49.17387 | -4.94061 | 37183 ft | 435 kts | 167° |
| 2026-04-23 17:10 | 49.11548 | -4.91812 | 37181 ft | 435 kts | 167° |
| 2026-04-23 17:11 | 49.05668 | -4.89551 | 37181 ft | 435 kts | 168° |
| 2026-04-23 17:11 | 48.99788 | -4.87296 | 37181 ft | 435 kts | 167° |
| 2026-04-23 17:12 | 48.93915 | -4.85045 | 37164 ft | 435 kts | 167° |
| 2026-04-23 17:12 | 48.88036 | -4.82804 | 37176 ft | 435 kts | 168° |
| 2026-04-23 17:13 | 48.82170 | -4.80574 | 37159 ft | 434 kts | 168° |
| 2026-04-23 17:13 | 48.76302 | -4.78348 | 37154 ft | 434 kts | 168° |
| 2026-04-23 17:14 | 48.70484 | -4.76146 | 37145 ft | 433 kts | 168° |
| 2026-04-23 17:14 | 48.64637 | -4.73929 | 37148 ft | 433 kts | 169° |
| 2026-04-23 17:15 | 48.58788 | -4.71723 | 37135 ft | 433 kts | 168° |
| 2026-04-23 17:15 | 48.52946 | -4.69528 | 37128 ft | 433 kts | 168° |
| 2026-04-23 17:16 | 48.48084 | -4.67704 | 37136 ft | 433 kts | 168° |
| 2026-04-23 17:16 | 48.42218 | -4.65508 | 37126 ft | 434 kts | 168° |
| 2026-04-23 17:17 | 48.36356 | -4.63318 | 37132 ft | 434 kts | 168° |
| 2026-04-23 17:17 | 48.30482 | -4.61128 | 37128 ft | 435 kts | 168° |
| 2026-04-23 17:18 | 48.21651 | -4.57846 | 37132 ft | 436 kts | 168° |
| 2026-04-23 17:19 | 48.15764 | -4.55665 | 37121 ft | 436 kts | 168° |
| 2026-04-23 17:19 | 48.09866 | -4.53485 | 37123 ft | 436 kts | 168° |
| 2026-04-23 17:20 | 48.03969 | -4.51310 | 37119 ft | 436 kts | 168° |
| 2026-04-23 17:21 | 47.92215 | -4.46990 | 37116 ft | 436 kts | 168° |
| 2026-04-23 17:21 | 47.83381 | -4.43757 | 37113 ft | 435 kts | 168° |
| 2026-04-23 17:22 | 47.74578 | -4.40547 | 37110 ft | 434 kts | 168° |
| 2026-04-23 17:23 | 47.65796 | -4.37355 | 37114 ft | 432 kts | 168° |
| 2026-04-23 17:24 | 47.57037 | -4.34181 | 37118 ft | 431 kts | 168° |
| 2026-04-23 17:24 | 47.48286 | -4.31022 | 37104 ft | 431 kts | 168° |
| 2026-04-23 17:25 | 47.39594 | -4.27898 | 37117 ft | 430 kts | 168° |
| 2026-04-23 17:26 | 47.27956 | -4.23729 | 37105 ft | 430 kts | 169° |
| 2026-04-23 17:27 | 47.19225 | -4.20614 | 37114 ft | 431 kts | 169° |
| 2026-04-23 17:27 | 47.13397 | -4.18540 | 37114 ft | 431 kts | 169° |
| 2026-04-23 17:28 | 47.07559 | -4.16467 | 37102 ft | 431 kts | 169° |
| 2026-04-23 17:28 | 47.01727 | -4.14401 | 37112 ft | 431 kts | 169° |
| 2026-04-23 17:29 | 46.95892 | -4.12338 | 37098 ft | 431 kts | 169° |
| 2026-04-23 17:30 | 46.87129 | -4.09249 | 37095 ft | 432 kts | 169° |
| 2026-04-23 17:30 | 46.78397 | -4.06181 | 37096 ft | 432 kts | 169° |
| 2026-04-23 17:31 | 46.72544 | -4.04131 | 37096 ft | 433 kts | 169° |
| 2026-04-23 17:31 | 46.66683 | -4.02083 | 37094 ft | 434 kts | 169° |
| 2026-04-23 17:32 | 46.60816 | -4.00037 | 37086 ft | 434 kts | 169° |
| 2026-04-23 17:32 | 46.54929 | -3.97988 | 37090 ft | 435 kts | 169° |
| 2026-04-23 17:33 | 46.49036 | -3.95942 | 37085 ft | 435 kts | 169° |
| 2026-04-23 17:33 | 46.43148 | -3.93902 | 37084 ft | 435 kts | 169° |
| 2026-04-23 17:34 | 46.37253 | -3.91864 | 37082 ft | 435 kts | 169° |
| 2026-04-23 17:35 | 46.28411 | -3.88816 | 37070 ft | 435 kts | 169° |
| 2026-04-23 17:35 | 46.19568 | -3.85777 | 37071 ft | 435 kts | 169° |
| 2026-04-23 17:36 | 46.13674 | -3.83758 | 37067 ft | 435 kts | 169° |
| 2026-04-23 17:36 | 46.07784 | -3.81744 | 37061 ft | 435 kts | 169° |
| 2026-04-23 17:37 | 46.01894 | -3.79735 | 37061 ft | 435 kts | 169° |
| 2026-04-23 17:38 | 45.93063 | -3.76731 | 37057 ft | 435 kts | 169° |
| 2026-04-23 17:38 | 45.87212 | -3.74746 | 37049 ft | 434 kts | 169° |
| 2026-04-23 17:39 | 45.81330 | -3.72755 | 37051 ft | 434 kts | 169° |
| 2026-04-23 17:39 | 45.75442 | -3.70766 | 37050 ft | 434 kts | 169° |
| 2026-04-23 17:40 | 45.69561 | -3.68783 | 37042 ft | 434 kts | 169° |
| 2026-04-23 17:40 | 45.63683 | -3.66807 | 37044 ft | 434 kts | 169° |
| 2026-04-23 17:41 | 45.57799 | -3.64832 | 37043 ft | 434 kts | 169° |
| 2026-04-23 17:41 | 45.48981 | -3.61880 | 37047 ft | 434 kts | 169° |
| 2026-04-23 17:42 | 45.40197 | -3.58950 | 37032 ft | 434 kts | 169° |
| 2026-04-23 17:43 | 45.34322 | -3.56995 | 37033 ft | 433 kts | 169° |
| 2026-04-23 17:43 | 45.28454 | -3.55046 | 37026 ft | 433 kts | 169° |
| 2026-04-23 17:44 | 45.22590 | -3.53103 | 37030 ft | 432 kts | 169° |
| 2026-04-23 17:44 | 45.13811 | -3.50202 | 37022 ft | 432 kts | 169° |
| 2026-04-23 17:45 | 45.05033 | -3.47311 | 37020 ft | 431 kts | 169° |
| 2026-04-23 17:46 | 44.96269 | -3.44433 | 37016 ft | 431 kts | 169° |
| 2026-04-23 17:46 | 44.90465 | -3.42536 | 36997 ft | 430 kts | 169° |
| 2026-04-23 17:47 | 44.84628 | -3.40628 | 37014 ft | 431 kts | 169° |
| 2026-04-23 17:48 | 44.75849 | -3.37762 | 37011 ft | 433 kts | 169° |
| 2026-04-23 17:48 | 44.69975 | -3.35852 | 37007 ft | 434 kts | 169° |
| 2026-04-23 17:49 | 44.64084 | -3.33941 | 37006 ft | 435 kts | 169° |
| 2026-04-23 17:49 | 44.58178 | -3.32029 | 37003 ft | 436 kts | 169° |
| 2026-04-23 17:50 | 44.52268 | -3.30119 | 36999 ft | 436 kts | 169° |
| 2026-04-23 17:50 | 44.43390 | -3.27257 | 36994 ft | 436 kts | 169° |
| 2026-04-23 17:51 | 44.37488 | -3.25360 | 36987 ft | 435 kts | 169° |
| 2026-04-23 17:52 | 44.28647 | -3.22525 | 36986 ft | 434 kts | 169° |
| 2026-04-23 17:52 | 44.19878 | -3.19721 | 36986 ft | 432 kts | 169° |
| 2026-04-23 17:53 | 44.11102 | -3.16860 | 36977 ft | 432 kts | 165° |
| 2026-04-23 17:53 | 44.08330 | -3.15231 | 36984 ft | 435 kts | 154° |
| 2026-04-23 17:54 | 44.05748 | -3.13019 | 36969 ft | 437 kts | 146° |
| 2026-04-23 17:54 | 43.98573 | -3.05153 | 36961 ft | 438 kts | 143° |
| 2026-04-23 17:55 | 43.91463 | -2.97160 | 36973 ft | 439 kts | 144° |
| 2026-04-23 17:56 | 43.86714 | -2.91889 | 36963 ft | 440 kts | 144° |
| 2026-04-23 17:56 | 43.79517 | -2.83932 | 36961 ft | 442 kts | 144° |
| 2026-04-23 17:57 | 43.74703 | -2.78622 | 36969 ft | 443 kts | 144° |
| 2026-04-23 17:58 | 43.67440 | -2.70689 | 36956 ft | 444 kts | 144° |
| 2026-04-23 17:58 | 43.62591 | -2.65416 | 36943 ft | 444 kts | 144° |
| 2026-04-23 17:59 | 43.57734 | -2.60142 | 36959 ft | 444 kts | 144° |
| 2026-04-23 17:59 | 43.52913 | -2.54908 | 36959 ft | 444 kts | 144° |
| 2026-04-23 18:00 | 43.48012 | -2.49608 | 36963 ft | 444 kts | 144° |
| 2026-04-23 18:00 | 43.43179 | -2.44391 | 36964 ft | 445 kts | 144° |
| 2026-04-23 18:01 | 43.38309 | -2.39143 | 36969 ft | 444 kts | 145° |
| 2026-04-23 18:01 | 43.33437 | -2.33904 | 36965 ft | 444 kts | 145° |
| 2026-04-23 18:02 | 43.29395 | -2.29565 | 36967 ft | 444 kts | 145° |
| 2026-04-23 18:02 | 43.24525 | -2.24348 | 36979 ft | 443 kts | 145° |
| 2026-04-23 18:03 | 43.19653 | -2.19140 | 36987 ft | 444 kts | 144° |
| 2026-04-23 18:03 | 43.14774 | -2.13933 | 36996 ft | 445 kts | 145° |
| 2026-04-23 18:04 | 43.09878 | -2.08721 | 36990 ft | 446 kts | 145° |
| 2026-04-23 18:04 | 43.04971 | -2.03510 | 37007 ft | 446 kts | 145° |
| 2026-04-23 18:05 | 43.00061 | -1.98307 | 37014 ft | 446 kts | 145° |
| 2026-04-23 18:05 | 42.95161 | -1.93120 | 37021 ft | 445 kts | 145° |
| 2026-04-23 18:06 | 42.90261 | -1.87946 | 37010 ft | 445 kts | 145° |
| 2026-04-23 18:06 | 42.85379 | -1.82813 | 37073 ft | 446 kts | 145° |
| 2026-04-23 18:07 | 42.80463 | -1.77635 | 37073 ft | 447 kts | 145° |
| 2026-04-23 18:07 | 42.75483 | -1.72554 | 37069 ft | 446 kts | 151° |
| 2026-04-23 18:08 | 42.69827 | -1.69327 | 37077 ft | 440 kts | 170° |
| 2026-04-23 18:08 | 42.63811 | -1.67945 | 37068 ft | 438 kts | 174° |
| 2026-04-23 18:09 | 42.57787 | -1.66691 | 37062 ft | 439 kts | 174° |
| 2026-04-23 18:09 | 42.51745 | -1.65395 | 37059 ft | 439 kts | 174° |
| 2026-04-23 18:10 | 42.45712 | -1.64070 | 37047 ft | 439 kts | 173° |
| 2026-04-23 18:10 | 42.39686 | -1.62738 | 37040 ft | 438 kts | 173° |
| 2026-04-23 18:11 | 42.33712 | -1.61419 | 37046 ft | 437 kts | 174° |
| 2026-04-23 18:11 | 42.27683 | -1.60092 | 37046 ft | 436 kts | 174° |
| 2026-04-23 18:12 | 42.21745 | -1.58788 | 37045 ft | 435 kts | 174° |
| 2026-04-23 18:12 | 42.15783 | -1.57482 | 37048 ft | 433 kts | 174° |
| 2026-04-23 18:13 | 42.09839 | -1.56182 | 37052 ft | 432 kts | 174° |
| 2026-04-23 18:13 | 42.03908 | -1.54887 | 37057 ft | 431 kts | 174° |
| 2026-04-23 18:14 | 41.97981 | -1.53596 | 37055 ft | 431 kts | 174° |
| 2026-04-23 18:14 | 41.92070 | -1.52310 | 37054 ft | 431 kts | 174° |
| 2026-04-23 18:15 | 41.86147 | -1.51025 | 37071 ft | 431 kts | 174° |
| 2026-04-23 18:15 | 41.80208 | -1.49738 | 37074 ft | 433 kts | 174° |
| 2026-04-23 18:16 | 41.74239 | -1.48448 | 37077 ft | 435 kts | 174° |
| 2026-04-23 18:16 | 41.68253 | -1.47156 | 37076 ft | 436 kts | 174° |
| 2026-04-23 18:17 | 41.59241 | -1.45215 | 37076 ft | 438 kts | 174° |
| 2026-04-23 18:17 | 41.53248 | -1.43927 | 37064 ft | 439 kts | 174° |
| 2026-04-23 18:18 | 41.47215 | -1.42633 | 37068 ft | 439 kts | 174° |
| 2026-04-23 18:18 | 41.41189 | -1.41343 | 37064 ft | 439 kts | 174° |
| 2026-04-23 18:19 | 41.35159 | -1.40054 | 37072 ft | 438 kts | 174° |
| 2026-04-23 18:19 | 41.29134 | -1.38769 | 37061 ft | 437 kts | 174° |
| 2026-04-23 18:20 | 41.23127 | -1.37491 | 37054 ft | 436 kts | 174° |
| 2026-04-23 18:20 | 41.17185 | -1.36231 | 37058 ft | 434 kts | 174° |
| 2026-04-23 18:21 | 41.11226 | -1.34970 | 37055 ft | 433 kts | 173° |
| 2026-04-23 18:21 | 41.05300 | -1.33608 | 37056 ft | 432 kts | 171° |
| 2026-04-23 18:22 | 40.99420 | -1.31904 | 37064 ft | 432 kts | 170° |
| 2026-04-23 18:22 | 40.93547 | -1.30183 | 37055 ft | 432 kts | 170° |
| 2026-04-23 18:23 | 40.84731 | -1.27665 | 37059 ft | 432 kts | 171° |
| 2026-04-23 18:24 | 40.75912 | -1.25159 | 37063 ft | 433 kts | 170° |
| 2026-04-23 18:25 | 40.67077 | -1.22656 | 37094 ft | 433 kts | 171° |
| 2026-04-23 18:25 | 40.61175 | -1.20987 | 37107 ft | 434 kts | 171° |
| 2026-04-23 18:26 | 40.55270 | -1.19320 | 37116 ft | 435 kts | 170° |
| 2026-04-23 18:26 | 40.49353 | -1.17652 | 37132 ft | 434 kts | 171° |
| 2026-04-23 18:27 | 40.43444 | -1.15989 | 37131 ft | 434 kts | 171° |
| 2026-04-23 18:27 | 40.37584 | -1.14343 | 37114 ft | 433 kts | 171° |
| 2026-04-23 18:28 | 40.31689 | -1.12693 | 37121 ft | 433 kts | 170° |
| 2026-04-23 18:28 | 40.25793 | -1.11035 | 37132 ft | 434 kts | 170° |
| 2026-04-23 18:29 | 40.19882 | -1.09387 | 37123 ft | 434 kts | 171° |
| 2026-04-23 18:29 | 40.13966 | -1.07740 | 37126 ft | 434 kts | 171° |
| 2026-04-23 18:30 | 40.08048 | -1.06093 | 37115 ft | 435 kts | 171° |
| 2026-04-23 18:30 | 40.02129 | -1.04447 | 37101 ft | 434 kts | 171° |
| 2026-04-23 18:31 | 39.96217 | -1.02806 | 37090 ft | 435 kts | 171° |
| 2026-04-23 18:31 | 39.90296 | -1.01167 | 37099 ft | 434 kts | 171° |
| 2026-04-23 18:32 | 39.84424 | -0.99545 | 37088 ft | 434 kts | 171° |
| 2026-04-23 18:32 | 39.78507 | -0.97912 | 37068 ft | 434 kts | 171° |
| 2026-04-23 18:33 | 39.72604 | -0.96285 | 37087 ft | 433 kts | 171° |
| 2026-04-23 18:33 | 39.66706 | -0.94665 | 37084 ft | 433 kts | 171° |
| 2026-04-23 18:34 | 39.60818 | -0.93049 | 37122 ft | 432 kts | 171° |
| 2026-04-23 18:34 | 39.54942 | -0.91439 | 37132 ft | 431 kts | 171° |
| 2026-04-23 18:35 | 39.49116 | -0.89845 | 37130 ft | 430 kts | 171° |
| 2026-04-23 18:35 | 39.43262 | -0.88247 | 37129 ft | 430 kts | 171° |
| 2026-04-23 18:36 | 39.37403 | -0.86650 | 37128 ft | 430 kts | 171° |
| 2026-04-23 18:36 | 39.31549 | -0.85057 | 37129 ft | 429 kts | 171° |
| 2026-04-23 18:37 | 39.25708 | -0.83470 | 37118 ft | 429 kts | 171° |
| 2026-04-23 18:37 | 39.19874 | -0.81889 | 37127 ft | 428 kts | 171° |
| 2026-04-23 18:38 | 39.14048 | -0.80313 | 37117 ft | 428 kts | 171° |
| 2026-04-23 18:38 | 39.08229 | -0.78741 | 37113 ft | 427 kts | 171° |
| 2026-04-23 18:39 | 39.02413 | -0.77171 | 37115 ft | 427 kts | 171° |
| 2026-04-23 18:39 | 38.96599 | -0.75605 | 37078 ft | 427 kts | 171° |
| 2026-04-23 18:40 | 38.90801 | -0.74046 | 36716 ft | 427 kts | 171° |
| 2026-04-23 18:40 | 38.87923 | -0.73271 | 36379 ft | 420 kts | 171° |
| 2026-04-23 18:40 | 38.85081 | -0.72506 | 36049 ft | 413 kts | 171° |
| 2026-04-23 18:40 | 38.82279 | -0.71754 | 35653 ft | 410 kts | 171° |
| 2026-04-23 18:41 | 38.79498 | -0.71009 | 35276 ft | 406 kts | 171° |
| 2026-04-23 18:41 | 38.76744 | -0.70272 | 34902 ft | 402 kts | 171° |
| 2026-04-23 18:41 | 38.74018 | -0.69544 | 34520 ft | 399 kts | 171° |
| 2026-04-23 18:41 | 38.71307 | -0.68820 | 34157 ft | 396 kts | 171° |
| 2026-04-23 18:42 | 38.68619 | -0.68103 | 33763 ft | 394 kts | 170° |
| 2026-04-23 18:42 | 38.65944 | -0.67389 | 33432 ft | 391 kts | 171° |
| 2026-04-23 18:42 | 38.63286 | -0.66682 | 33038 ft | 388 kts | 170° |
| 2026-04-23 18:42 | 38.60654 | -0.65983 | 32674 ft | 385 kts | 170° |
| 2026-04-23 18:43 | 38.58048 | -0.65286 | 32312 ft | 382 kts | 170° |
| 2026-04-23 18:43 | 38.55430 | -0.64586 | 31643 ft | 387 kts | 171° |
| 2026-04-23 18:43 | 38.52775 | -0.63881 | 31056 ft | 391 kts | 171° |
| 2026-04-23 18:43 | 38.50150 | -0.63185 | 30673 ft | 388 kts | 170° |
| 2026-04-23 18:44 | 38.47518 | -0.62486 | 30361 ft | 385 kts | 171° |
| 2026-04-23 18:44 | 38.44901 | -0.61792 | 29983 ft | 382 kts | 171° |
| 2026-04-23 18:44 | 38.42309 | -0.61105 | 29553 ft | 379 kts | 170° |
| 2026-04-23 18:44 | 38.39735 | -0.60423 | 29107 ft | 377 kts | 171° |
| 2026-04-23 18:45 | 38.37175 | -0.59746 | 28681 ft | 374 kts | 171° |
| 2026-04-23 18:45 | 38.34631 | -0.59072 | 28276 ft | 372 kts | 171° |
| 2026-04-23 18:45 | 38.32105 | -0.58404 | 27851 ft | 369 kts | 171° |
| 2026-04-23 18:45 | 38.29595 | -0.57742 | 27444 ft | 367 kts | 170° |
| 2026-04-23 18:46 | 38.27098 | -0.57107 | 27024 ft | 364 kts | 174° |
| 2026-04-23 18:46 | 38.24595 | -0.57185 | 26592 ft | 358 kts | 194° |
| 2026-04-23 18:46 | 38.22216 | -0.58028 | 26258 ft | 353 kts | 200° |
| 2026-04-23 18:46 | 38.19897 | -0.59018 | 25894 ft | 350 kts | 200° |
| 2026-04-23 18:47 | 38.17601 | -0.60033 | 25524 ft | 348 kts | 201° |
| 2026-04-23 18:47 | 38.15327 | -0.61040 | 25149 ft | 346 kts | 201° |
| 2026-04-23 18:47 | 38.13066 | -0.62044 | 24831 ft | 342 kts | 201° |
| 2026-04-23 18:47 | 38.10864 | -0.63011 | 24610 ft | 335 kts | 201° |
| 2026-04-23 18:48 | 38.08662 | -0.63971 | 24202 ft | 335 kts | 201° |
| 2026-04-23 18:48 | 38.06456 | -0.64941 | 23782 ft | 336 kts | 201° |
| 2026-04-23 18:48 | 38.04242 | -0.65921 | 23320 ft | 336 kts | 201° |
| 2026-04-23 18:48 | 38.02043 | -0.66892 | 22960 ft | 333 kts | 201° |
| 2026-04-23 18:49 | 37.99877 | -0.67841 | 22741 ft | 326 kts | 201° |
| 2026-04-23 18:49 | 37.97727 | -0.68775 | 22277 ft | 326 kts | 201° |
| 2026-04-23 18:49 | 37.95577 | -0.69721 | 21746 ft | 329 kts | 201° |
| 2026-04-23 18:49 | 37.93430 | -0.70668 | 21487 ft | 323 kts | 201° |
| 2026-04-23 18:50 | 37.92741 | -0.70970 | 21390 ft | 321 kts | 201° |
| 2026-04-23 18:50 | 37.89241 | -0.72496 | 20874 ft | 315 kts | 201° |
| 2026-04-23 18:50 | 37.87165 | -0.73400 | 20457 ft | 315 kts | 201° |
| 2026-04-23 18:50 | 37.85116 | -0.74300 | 19975 ft | 318 kts | 201° |
| 2026-04-23 18:51 | 37.83036 | -0.75216 | 19692 ft | 313 kts | 201° |
| 2026-04-23 18:51 | 37.80981 | -0.76109 | 19452 ft | 308 kts | 201° |
| 2026-04-23 18:51 | 37.78982 | -0.76974 | 19226 ft | 302 kts | 200° |
| 2026-04-23 18:51 | 37.76990 | -0.77872 | 18713 ft | 303 kts | 201° |
| 2026-04-23 18:52 | 37.74991 | -0.78786 | 17999 ft | 306 kts | 201° |
| 2026-04-23 18:52 | 37.73635 | -0.79414 | 17525 ft | 307 kts | 201° |
| 2026-04-23 18:52 | 37.71674 | -0.80325 | 16983 ft | 303 kts | 201° |
| 2026-04-23 18:52 | 37.69717 | -0.81236 | 16574 ft | 294 kts | 201° |
| 2026-04-23 18:53 | 37.67806 | -0.82129 | 15941 ft | 294 kts | 201° |
| 2026-04-23 18:53 | 37.65896 | -0.83028 | 15386 ft | 292 kts | 201° |
| 2026-04-23 18:53 | 37.63982 | -0.83937 | 14729 ft | 295 kts | 201° |
| 2026-04-23 18:53 | 37.62090 | -0.84843 | 14302 ft | 288 kts | 201° |
| 2026-04-23 18:54 | 37.60204 | -0.85752 | 13563 ft | 292 kts | 201° |
| 2026-04-23 18:54 | 37.58297 | -0.86679 | 12804 ft | 295 kts | 201° |
| 2026-04-23 18:54 | 37.56371 | -0.87617 | 12057 ft | 297 kts | 201° |
| 2026-04-23 18:54 | 37.54431 | -0.88561 | 11323 ft | 300 kts | 201° |
| 2026-04-23 18:55 | 37.52484 | -0.89509 | 10614 ft | 300 kts | 201° |
| 2026-04-23 18:55 | 37.50535 | -0.90453 | 10108 ft | 297 kts | 201° |
| 2026-04-23 18:55 | 37.48654 | -0.91362 | 10033 ft | 284 kts | 201° |
| 2026-04-23 18:55 | 37.46833 | -0.92239 | 9823 ft | 277 kts | 201° |
| 2026-04-23 18:56 | 37.45080 | -0.93162 | 9538 ft | 273 kts | 211° |
| 2026-04-23 18:56 | 37.43726 | -0.94803 | 9123 ft | 277 kts | 237° |
| 2026-04-23 18:56 | 37.43132 | -0.97095 | 8798 ft | 281 kts | 263° |
| 2026-04-23 18:56 | 37.43341 | -0.99553 | 8447 ft | 285 kts | 278° |
| 2026-04-23 18:57 | 37.43850 | -1.01971 | 8067 ft | 289 kts | 287° |
| 2026-04-23 18:57 | 37.44741 | -1.04261 | 7671 ft | 293 kts | 295° |
| 2026-04-23 18:57 | 37.45720 | -1.06509 | 7304 ft | 293 kts | 296° |
| 2026-04-23 18:57 | 37.46688 | -1.08733 | 6933 ft | 294 kts | 296° |
| 2026-04-23 18:58 | 37.47662 | -1.10993 | 6644 ft | 295 kts | 296° |
| 2026-04-23 18:58 | 37.48634 | -1.13297 | 6410 ft | 300 kts | 296° |
| 2026-04-23 18:58 | 37.49609 | -1.15648 | 6195 ft | 305 kts | 297° |
| 2026-04-23 18:58 | 37.50560 | -1.18041 | 5940 ft | 305 kts | 298° |
| 2026-04-23 18:59 | 37.51575 | -1.20384 | 5689 ft | 304 kts | 301° |
| 2026-04-23 18:59 | 37.52595 | -1.22707 | 5463 ft | 303 kts | 301° |
| 2026-04-23 18:59 | 37.53598 | -1.25038 | 5219 ft | 301 kts | 301° |
| 2026-04-23 18:59 | 37.54568 | -1.27349 | 4983 ft | 296 kts | 301° |
| 2026-04-23 19:00 | 37.55496 | -1.29618 | 4855 ft | 287 kts | 301° |
| 2026-04-23 19:00 | 37.56389 | -1.31835 | 4723 ft | 279 kts | 301° |
| 2026-04-23 19:00 | 37.57247 | -1.33991 | 4574 ft | 270 kts | 304° |
| 2026-04-23 19:00 | 37.58407 | -1.35694 | 4515 ft | 246 kts | 333° |
| 2026-04-23 19:01 | 37.59837 | -1.36688 | 4520 ft | 225 kts | 340° |
| 2026-04-23 19:01 | 37.61190 | -1.37502 | 4501 ft | 208 kts | 345° |
| 2026-04-23 19:01 | 37.62531 | -1.37739 | 4509 ft | 183 kts | 21° |
| 2026-04-23 19:01 | 37.63451 | -1.36864 | 4546 ft | 162 kts | 56° |
| 2026-04-23 19:02 | 37.64172 | -1.35721 | 4525 ft | 167 kts | 51° |
| 2026-04-23 19:02 | 37.64930 | -1.34631 | 4515 ft | 164 kts | 51° |
| 2026-04-23 19:02 | 37.65669 | -1.33561 | 4510 ft | 161 kts | 51° |
| 2026-04-23 19:02 | 37.66402 | -1.32497 | 4524 ft | 161 kts | 51° |
| 2026-04-23 19:03 | 37.67131 | -1.31441 | 4503 ft | 163 kts | 51° |
| 2026-04-23 19:03 | 37.67895 | -1.30331 | 4291 ft | 169 kts | 51° |
| 2026-04-23 19:03 | 37.68660 | -1.29222 | 4056 ft | 166 kts | 51° |
| 2026-04-23 19:03 | 37.69412 | -1.28130 | 3829 ft | 163 kts | 51° |
| 2026-04-23 19:04 | 37.70151 | -1.27060 | 3606 ft | 161 kts | 52° |
| 2026-04-23 19:04 | 37.70882 | -1.25999 | 3380 ft | 159 kts | 52° |
| 2026-04-23 19:04 | 37.71605 | -1.24956 | 3094 ft | 158 kts | 52° |
| 2026-04-23 19:04 | 37.72305 | -1.23929 | 2938 ft | 151 kts | 53° |
| 2026-04-23 19:05 | 37.72929 | -1.22849 | 2733 ft | 152 kts | 59° |
| 2026-04-23 19:05 | 37.73521 | -1.21732 | 2478 ft | 155 kts | 57° |
| 2026-04-23 19:05 | 37.74172 | -1.20625 | 2167 ft | 158 kts | 54° |
| 2026-04-23 19:05 | 37.74896 | -1.19573 | 1890 ft | 159 kts | 51° |
| 2026-04-23 19:06 | 37.75620 | -1.18563 | 1554 ft | 156 kts | 51° |
| 2026-04-23 19:06 | 37.76340 | -1.17614 | 1444 ft | 138 kts | 50° |
| 2026-04-23 19:06 | 37.76977 | -1.16775 | 1247 ft | 133 kts | 48° |
| 2026-04-23 19:06 | 37.77631 | -1.15935 | 1116 ft | 142 kts | 47° |
| 2026-04-23 19:07 | 37.78331 | -1.15019 | 954 ft | 144 kts | 45° |
| 2026-04-23 19:07 | 37.79032 | -1.14118 | 799 ft | 142 kts | 45° |
| 2026-04-23 19:07 | 37.79714 | -1.13242 | 657 ft | 136 kts | 45° |
| 2026-04-23 19:07 | 37.80306 | -1.12480 | 646 ft | 95 kts | 46° |
| 2026-04-23 19:08 | 37.80682 | -1.11996 | 643 ft | 62 kts | 45° |
| 2026-04-23 19:08 | 37.80937 | -1.11669 | 645 ft | 45 kts | 45° |
| 2026-04-23 19:08 | 37.81118 | -1.11436 | 648 ft | 30 kts | 45° |
| 2026-04-23 19:08 | 37.81219 | -1.11308 | 646 ft | 10 kts | 37° |
| 2026-04-23 19:09 | 37.81284 | -1.11323 | 648 ft | 10 kts | 318° |
| 2026-04-23 19:09 | 37.81336 | -1.11392 | 649 ft | 12 kts | 307° |
| 2026-04-23 19:09 | 37.81311 | -1.11498 | 651 ft | 18 kts | 226° |
| 2026-04-23 19:09 | 37.81199 | -1.11642 | 650 ft | 29 kts | 225° |
| 2026-04-23 19:10 | 37.81039 | -1.11848 | 648 ft | 35 kts | 226° |
| 2026-04-23 19:10 | 37.80871 | -1.12065 | 647 ft | 34 kts | 225° |
| 2026-04-23 19:10 | 37.80709 | -1.12272 | 649 ft | 31 kts | 226° |
| 2026-04-23 19:10 | 37.80566 | -1.12456 | 648 ft | 28 kts | 225° |
| 2026-04-23 19:11 | 37.80434 | -1.12626 | 648 ft | 26 kts | 225° |
| 2026-04-23 19:11 | 37.80312 | -1.12783 | 647 ft | 24 kts | 225° |
| 2026-04-23 19:11 | 37.80201 | -1.12928 | 646 ft | 23 kts | 225° |
| 2026-04-23 19:11 | 37.80122 | -1.13031 | 646 ft | 8 kts | 232° |
| 2026-04-23 19:12 | 37.80115 | -1.13075 | 646 ft | 8 kts | 281° |
| 2026-04-23 19:12 | 37.80170 | -1.13147 | 646 ft | 9 kts | 325° |
| 2026-04-23 19:12 | 37.80231 | -1.13140 | 646 ft | 11 kts | 38° |
| 2026-04-23 19:12 | 37.80286 | -1.13069 | 646 ft | 7 kts | 39° |
| 2026-04-23 19:13 | 37.80308 | -1.13069 | 646 ft | 2 kts | 323° |
| 2026-04-23 19:13 | 37.80330 | -1.13095 | 646 ft | 7 kts | 317° |
| 2026-04-23 19:13 | 37.80350 | -1.13118 | 646 ft | 0 kts | 315° |